Time;durP1;ratioP1;P1;durP2;ratioP2;P2;SDS_P1;SDS_P2;PMS_P1;PMS_P2;Temp;Humidity;BMP_temperature;BMP_pressure;BME280_temperature;BME280_humidity;BME280_pressure;Samples;Min_cycle;Max_cycle;Signal;HPM_P1;HPM_P2
2023/07/04 00:01:09;;;;;;;6.80;2.83;;;17.70;99.90;;;;;;5083505;28;20431;-69
2023/07/04 00:03:36;;;;;;;7.13;3.30;;;17.70;99.90;;;;;;5084641;28;20498;-69
2023/07/04 00:06:05;;;;;;;8.33;3.33;;;17.70;99.90;;;;;;5082889;28;20414;-69
2023/07/04 00:08:33;;;;;;;5.33;2.60;;;17.60;99.90;;;;;;5083163;28;20427;-68
2023/07/04 00:11:03;;;;;;;6.60;2.73;;;17.60;99.90;;;;;;5081330;28;20450;-68
2023/07/04 00:13:31;;;;;;;5.97;2.60;;;17.50;99.90;;;;;;5085064;28;20534;-69
2023/07/04 00:15:57;;;;;;;11.53;3.13;;;17.50;99.90;;;;;;5088343;28;20982;-69
2023/07/04 00:18:25;;;;;;;12.30;2.97;;;17.50;99.90;;;;;;5078331;28;20916;-68
2023/07/04 00:20:56;;;;;;;8.17;3.40;;;17.40;99.90;;;;;;5087727;28;20430;-68
2023/07/04 00:23:29;;;;;;;3.90;2.60;;;17.40;99.90;;;;;;5075637;28;20441;-69
2023/07/04 00:25:55;;;;;;;7.03;2.53;;;17.40;99.90;;;;;;5086729;28;20414;-68
2023/07/04 00:28:23;;;;;;;7.50;3.03;;;17.40;99.90;;;;;;5089393;28;20926;-68
2023/07/04 00:30:51;;;;;;;4.80;2.93;;;17.40;99.90;;;;;;5083553;28;20422;-68
2023/07/04 00:33:25;;;;;;;6.37;2.57;;;17.40;99.90;;;;;;5081842;28;20422;-68
2023/07/04 00:36:03;;;;;;;4.97;2.50;;;17.40;99.90;;;;;;5081116;28;20509;-68
2023/07/04 00:38:33;;;;;;;9.23;2.90;;;17.40;99.90;;;;;;5083147;28;20418;-68
2023/07/04 00:41:01;;;;;;;6.00;3.13;;;17.40;99.90;;;;;;5082378;28;21244;-68
2023/07/04 00:44:08;;;;;;;7.27;2.93;;;17.40;99.90;;;;;;5083902;28;20411;-68
2023/07/04 00:46:38;;;;;;;6.57;2.87;;;17.40;99.90;;;;;;5083934;28;20414;-68
2023/07/04 00:49:08;;;;;;;7.30;3.10;;;17.40;99.90;;;;;;5083401;28;20967;-68
2023/07/04 00:51:35;;;;;;;5.33;2.90;;;17.40;99.90;;;;;;5085325;28;20441;-68
2023/07/04 00:54:00;;;;;;;6.43;2.43;;;17.30;99.90;;;;;;5072979;28;20920;-68
2023/07/04 00:56:28;;;;;;;7.90;2.90;;;17.30;99.90;;;;;;5068736;28;20403;-68
2023/07/04 00:58:59;;;;;;;7.03;2.57;;;17.30;99.90;;;;;;5067451;28;20203;-68
2023/07/04 01:01:26;;;;;;;8.97;2.80;;;17.30;99.90;;;;;;5080082;28;20437;-68
2023/07/04 01:03:52;;;;;;;6.00;2.73;;;17.30;99.90;;;;;;5088188;28;20437;-68
2023/07/04 01:06:29;;;;;;;9.20;3.30;;;17.20;99.90;;;;;;5088927;28;20418;-68
2023/07/04 01:08:59;;;;;;;4.53;2.70;;;17.20;99.90;;;;;;5087748;28;20840;-68
2023/07/04 01:11:32;;;;;;;4.20;2.80;;;17.20;99.90;;;;;;5088726;28;20438;-68
2023/07/04 01:13:58;;;;;;;7.10;2.80;;;17.20;99.90;;;;;;5087967;28;21068;-69
2023/07/04 01:16:24;;;;;;;6.33;2.50;;;17.10;99.90;;;;;;5088755;28;20523;-69
2023/07/04 01:18:54;;;;;;;8.70;3.30;;;17.00;99.90;;;;;;5087616;28;20176;-68
2023/07/04 01:21:24;;;;;;;5.90;3.13;;;17.00;99.90;;;;;;5088724;28;21801;-69
2023/07/04 01:24:01;;;;;;;8.50;3.10;;;17.00;99.90;;;;;;5087968;28;20429;-69
2023/07/04 01:26:46;;;;;;;6.23;3.20;;;17.00;99.90;;;;;;5088631;28;20447;-68
2023/07/04 01:29:14;;;;;;;7.40;3.20;;;17.00;99.90;;;;;;5090122;28;20418;-69
2023/07/04 01:31:40;;;;;;;8.43;3.10;;;17.00;99.90;;;;;;5092828;28;20513;-69
2023/07/04 01:34:08;;;;;;;7.57;3.60;;;17.00;99.90;;;;;;5092551;28;20974;-69
2023/07/04 01:36:37;;;;;;;7.23;3.43;;;16.90;99.90;;;;;;5092964;28;20490;-68
2023/07/04 01:39:04;;;;;;;6.13;3.30;;;16.90;99.90;;;;;;5093180;28;20415;-69
2023/07/04 01:41:30;;;;;;;11.20;3.40;;;16.80;99.90;;;;;;5092639;28;20458;-69
2023/07/04 01:44:02;;;;;;;10.60;3.57;;;16.90;99.90;;;;;;5091900;28;20407;-69
2023/07/04 01:46:28;;;;;;;6.13;3.77;;;16.80;99.90;;;;;;5092588;28;20511;-68
2023/07/04 01:48:55;;;;;;;8.83;3.00;;;16.80;99.90;;;;;;5092781;28;20441;-69
2023/07/04 01:51:32;;;;;;;10.33;3.63;;;16.90;99.90;;;;;;5092283;28;20426;-69
2023/07/04 01:53:58;;;;;;;4.07;2.60;;;16.70;99.90;;;;;;5091752;28;20418;-68
2023/07/04 01:56:24;;;;;;;6.80;3.60;;;16.70;99.90;;;;;;5092192;28;20410;-68
2023/07/04 01:58:50;;;;;;;7.90;3.07;;;16.60;99.90;;;;;;5091752;28;20402;-68
2023/07/04 02:01:16;;;;;;;7.07;3.27;;;16.70;99.90;;;;;;5092099;28;20958;-68
2023/07/04 02:03:42;;;;;;;7.60;2.93;;;16.70;99.90;;;;;;5091290;28;20518;-69
2023/07/04 02:06:08;;;;;;;6.57;2.93;;;16.60;99.90;;;;;;5092219;28;20222;-69
2023/07/04 02:08:34;;;;;;;6.60;3.40;;;16.50;99.90;;;;;;5092101;28;20782;-69
2023/07/04 02:11:00;;;;;;;6.10;3.10;;;16.60;99.90;;;;;;5092038;28;20199;-70
2023/07/04 02:13:25;;;;;;;4.73;2.50;;;16.60;99.90;;;;;;5090743;28;20411;-68
2023/07/04 02:15:51;;;;;;;6.80;3.33;;;16.60;99.90;;;;;;5092095;28;20200;-68
2023/07/04 02:18:18;;;;;;;7.47;3.13;;;16.60;99.90;;;;;;5090819;28;20173;-68
2023/07/04 02:20:43;;;;;;;5.60;3.03;;;16.60;99.90;;;;;;5092083;28;20195;-68
2023/07/04 02:23:09;;;;;;;6.13;3.50;;;16.60;99.90;;;;;;5090881;28;20395;-69
2023/07/04 02:25:41;;;;;;;5.80;2.97;;;16.50;99.90;;;;;;5091843;28;20241;-68
2023/07/04 02:28:08;;;;;;;7.83;3.07;;;16.50;99.90;;;;;;5091357;28;20176;-69
2023/07/04 02:30:34;;;;;;;6.37;3.20;;;16.50;99.90;;;;;;5091798;28;20441;-68
2023/07/04 02:32:59;;;;;;;12.70;3.27;;;16.50;99.90;;;;;;5090643;28;20484;-68
2023/07/04 02:35:25;;;;;;;11.03;3.10;;;16.40;99.90;;;;;;5091449;28;20201;-69
2023/07/04 02:37:51;;;;;;;6.40;3.87;;;16.40;99.90;;;;;;5091561;28;20224;-69
2023/07/04 02:40:17;;;;;;;9.13;3.60;;;16.40;99.90;;;;;;5090877;28;20438;-68
2023/07/04 02:42:42;;;;;;;6.63;2.80;;;16.40;99.90;;;;;;5090555;28;20173;-69
2023/07/04 02:45:09;;;;;;;9.37;3.77;;;16.40;99.90;;;;;;5091172;28;20195;-69
2023/07/04 02:47:35;;;;;;;9.20;2.97;;;16.30;99.90;;;;;;5091129;28;20536;-68
2023/07/04 02:50:01;;;;;;;6.30;3.10;;;16.30;99.90;;;;;;5091240;28;20418;-69
2023/07/04 02:52:26;;;;;;;8.73;3.30;;;16.30;99.90;;;;;;5090323;28;20356;-68
2023/07/04 02:54:52;;;;;;;7.43;3.00;;;16.30;99.90;;;;;;5090858;28;20211;-69
2023/07/04 02:57:18;;;;;;;5.53;3.73;;;16.20;99.90;;;;;;5090331;28;20179;-68
2023/07/04 02:59:45;;;;;;;7.70;3.70;;;16.30;99.90;;;;;;5091054;28;20938;-69
2023/07/04 03:02:11;;;;;;;8.53;4.07;;;16.20;99.90;;;;;;5090229;28;21149;-68
2023/07/04 03:04:37;;;;;;;8.57;3.30;;;16.20;99.90;;;;;;5090583;28;20499;-68
2023/07/04 03:07:04;;;;;;;7.00;3.40;;;16.30;99.90;;;;;;5090833;28;20418;-68
2023/07/04 03:09:30;;;;;;;9.93;3.43;;;16.30;99.90;;;;;;5090961;28;20269;-68
2023/07/04 03:11:56;;;;;;;7.33;3.33;;;16.20;99.90;;;;;;5090748;28;20461;-70
2023/07/04 03:14:23;;;;;;;7.67;3.37;;;16.20;99.90;;;;;;5089748;28;20272;-69
2023/07/04 03:16:48;;;;;;;6.27;3.30;;;16.10;99.90;;;;;;5089509;28;20183;-69
2023/07/04 03:19:14;;;;;;;15.87;3.80;;;16.10;99.90;;;;;;5089520;28;20764;-69
2023/07/04 03:21:40;;;;;;;12.00;3.87;;;16.10;99.90;;;;;;5089270;28;20207;-69
2023/07/04 03:24:06;;;;;;;5.83;3.00;;;16.00;99.90;;;;;;5089764;28;20207;-69
2023/07/04 03:26:34;;;;;;;9.90;3.63;;;16.00;99.90;;;;;;5090372;28;20557;-69
2023/07/04 03:29:00;;;;;;;8.57;3.90;;;16.10;99.90;;;;;;5090502;28;20418;-68
2023/07/04 03:31:26;;;;;;;4.77;3.80;;;16.00;99.90;;;;;;5090374;28;20500;-68
2023/07/04 03:33:51;;;;;;;8.27;4.00;;;16.00;99.90;;;;;;5089427;28;20410;-68
2023/07/04 03:36:17;;;;;;;9.73;3.60;;;16.10;99.90;;;;;;5090329;28;20303;-68
2023/07/04 03:38:43;;;;;;;10.23;3.63;;;16.00;99.90;;;;;;5090301;28;20574;-68
2023/07/04 03:41:09;;;;;;;8.03;3.30;;;16.00;99.90;;;;;;5090249;28;20434;-69
2023/07/04 03:43:35;;;;;;;7.87;3.30;;;16.00;99.90;;;;;;5089115;28;20517;-69
2023/07/04 03:46:00;;;;;;;10.73;3.23;;;16.00;99.90;;;;;;5090081;28;20565;-68
2023/07/04 03:48:26;;;;;;;13.10;3.90;;;16.00;99.90;;;;;;5090081;28;20173;-68
2023/07/04 03:50:52;;;;;;;9.50;3.53;;;16.00;99.90;;;;;;5089217;28;20196;-68
2023/07/04 03:53:17;;;;;;;9.53;4.17;;;16.00;99.90;;;;;;5088814;28;20184;-69
2023/07/04 03:55:43;;;;;;;7.43;3.50;;;15.90;99.90;;;;;;5090006;28;20654;-68
2023/07/04 03:58:09;;;;;;;6.80;3.20;;;16.00;99.90;;;;;;5088748;28;20199;-69
2023/07/04 04:00:35;;;;;;;7.80;3.27;;;16.00;99.90;;;;;;5090037;28;20192;-69
2023/07/04 04:03:00;;;;;;;9.67;3.40;;;16.00;99.90;;;;;;5088839;28;20177;-68
2023/07/04 04:05:28;;;;;;;9.33;3.50;;;15.90;99.90;;;;;;5089767;28;20210;-69
2023/07/04 04:07:54;;;;;;;7.80;3.40;;;15.90;99.90;;;;;;5088548;28;20727;-69
2023/07/04 04:10:19;;;;;;;7.50;3.40;;;15.90;99.90;;;;;;5089671;28;20438;-69
2023/07/04 04:12:45;;;;;;;8.80;3.40;;;15.90;99.90;;;;;;5088897;28;20716;-68
2023/07/04 04:15:11;;;;;;;6.77;3.57;;;15.90;99.90;;;;;;5089318;28;20212;-68
2023/07/04 04:17:37;;;;;;;12.30;3.93;;;15.90;99.90;;;;;;5088709;28;20677;-69
2023/07/04 04:20:06;;;;;;;9.07;3.67;;;15.90;99.90;;;;;;5089275;28;20430;-69
2023/07/04 04:22:32;;;;;;;7.73;3.30;;;15.80;99.90;;;;;;5087631;28;20225;-68
2023/07/04 04:24:58;;;;;;;7.60;3.17;;;15.80;99.90;;;;;;5089119;28;20415;-68
2023/07/04 04:27:30;;;;;;;9.37;3.83;;;15.80;99.90;;;;;;5089201;28;20921;-69
2023/07/04 04:29:56;;;;;;;8.90;4.00;;;15.80;99.90;;;;;;5089240;28;20434;-69
2023/07/04 04:32:22;;;;;;;7.23;3.87;;;15.90;99.90;;;;;;5088787;28;21144;-68
2023/07/04 04:34:48;;;;;;;12.50;4.27;;;16.00;99.90;;;;;;5088903;28;20211;-68
2023/07/04 04:37:14;;;;;;;16.50;5.73;;;15.90;99.90;;;;;;5089414;28;20498;-69
2023/07/04 04:39:40;;;;;;;12.93;3.97;;;16.00;99.90;;;;;;5088985;28;20482;-69
2023/07/04 04:42:06;;;;;;;12.77;3.70;;;16.00;99.90;;;;;;5088212;28;20172;-69
2023/07/04 04:44:32;;;;;;;9.10;4.17;;;16.00;99.90;;;;;;5088348;28;20183;-68
2023/07/04 04:46:58;;;;;;;15.30;5.83;;;16.00;99.90;;;;;;5088770;28;20406;-69
2023/07/04 04:49:24;;;;;;;8.93;3.60;;;15.90;99.90;;;;;;5087482;28;20184;-69
2023/07/04 04:51:52;;;;;;;9.77;4.80;;;15.90;99.90;;;;;;5088673;28;20428;-70
2023/07/04 04:54:18;;;;;;;7.53;4.10;;;16.00;99.90;;;;;;5073576;28;20193;-68
2023/07/04 04:56:46;;;;;;;8.80;4.10;;;16.00;99.90;;;;;;5079608;28;20438;-68
2023/07/04 04:59:12;;;;;;;12.30;4.50;;;16.10;99.90;;;;;;5083142;28;20249;-69
2023/07/04 05:01:38;;;;;;;8.97;3.30;;;16.20;99.90;;;;;;5088461;28;20438;-68
2023/07/04 05:04:04;;;;;;;8.97;4.03;;;16.30;99.90;;;;;;5081387;28;20256;-68
2023/07/04 05:06:30;;;;;;;14.43;4.87;;;16.30;99.90;;;;;;5084986;28;20184;-69
2023/07/04 05:08:56;;;;;;;11.73;4.23;;;16.40;99.90;;;;;;5088228;28;20966;-69
2023/07/04 05:11:22;;;;;;;5.73;3.23;;;16.40;99.90;;;;;;5088443;28;20521;-68
2023/07/04 05:13:49;;;;;;;12.80;4.27;;;16.40;99.90;;;;;;5086792;28;20518;-69
2023/07/04 05:16:17;;;;;;;11.13;3.60;;;16.50;99.90;;;;;;5085155;28;20530;-68
2023/07/04 05:18:44;;;;;;;8.47;3.57;;;16.50;99.90;;;;;;5088050;28;20407;-68
2023/07/04 05:21:12;;;;;;;12.23;4.50;;;16.60;99.90;;;;;;5087605;28;20491;-68
2023/07/04 05:23:41;;;;;;;11.90;4.17;;;16.70;99.90;;;;;;5086127;28;20418;-68
2023/07/04 05:26:12;;;;;;;11.60;3.73;;;16.60;99.90;;;;;;5087278;28;20462;-68
2023/07/04 05:28:39;;;;;;;8.40;3.63;;;16.70;99.90;;;;;;5088244;28;20414;-68
2023/07/04 05:31:12;;;;;;;8.10;4.13;;;16.70;99.90;;;;;;5088298;28;20433;-68
2023/07/04 05:33:39;;;;;;;14.40;4.70;;;16.80;99.90;;;;;;5081533;28;20793;-68
2023/07/04 05:36:19;;;;;;;11.90;4.40;;;16.80;99.90;;;;;;5077845;28;20558;-69
2023/07/04 05:38:50;;;;;;;11.30;3.43;;;16.90;99.90;;;;;;5077723;28;20445;-69
2023/07/04 05:41:17;;;;;;;12.17;3.90;;;16.90;99.90;;;;;;5086345;28;20439;-68
2023/07/04 05:43:44;;;;;;;12.57;4.50;;;16.90;99.90;;;;;;5083171;28;20490;-69
2023/07/04 05:46:11;;;;;;;10.17;3.80;;;17.10;99.90;;;;;;5079615;28;20497;-69
2023/07/04 05:48:37;;;;;;;9.80;3.77;;;17.10;99.90;;;;;;5080057;28;20502;-68
2023/07/04 05:51:06;;;;;;;6.60;3.03;;;17.20;99.90;;;;;;5088174;28;20856;-68
2023/07/04 05:53:34;;;;;;;12.47;4.20;;;17.20;99.90;;;;;;5080226;28;20422;-68
2023/07/04 05:56:08;;;;;;;9.10;4.13;;;17.30;99.90;;;;;;5087928;28;20454;-68
2023/07/04 05:58:36;;;;;;;8.50;4.10;;;17.40;99.90;;;;;;5088432;28;20409;-68
2023/07/04 06:01:15;;;;;;;10.57;3.93;;;17.40;99.90;;;;;;5088193;28;20469;-68
2023/07/04 06:03:41;;;;;;;7.83;3.33;;;17.50;99.90;;;;;;5087167;28;20442;-69
2023/07/04 06:06:16;;;;;;;15.23;4.63;;;17.50;99.90;;;;;;5088242;28;20434;-69
2023/07/04 06:08:42;;;;;;;5.13;4.23;;;17.50;99.90;;;;;;5088479;28;20445;-68
2023/07/04 06:11:08;;;;;;;7.30;4.60;;;17.40;99.90;;;;;;5088339;28;20930;-68
2023/07/04 06:13:34;;;;;;;14.63;4.07;;;17.40;99.90;;;;;;5087135;28;20173;-69
2023/07/04 06:16:02;;;;;;;13.47;6.17;;;17.40;99.90;;;;;;5091157;28;20200;-69
2023/07/04 06:18:28;;;;;;;13.53;4.83;;;17.40;99.90;;;;;;5082729;28;20408;-69
2023/07/04 06:21:03;;;;;;;9.70;4.87;;;17.40;99.90;;;;;;5082435;28;20494;-69
2023/07/04 06:23:29;;;;;;;10.20;4.73;;;17.40;99.90;;;;;;5079893;28;20215;-69
2023/07/04 06:25:58;;;;;;;9.07;4.30;;;17.40;99.90;;;;;;5084565;28;20485;-69
2023/07/04 06:28:23;;;;;;;15.80;6.30;;;17.40;99.90;;;;;;5083739;27;20534;-69
2023/07/04 06:30:49;;;;;;;9.00;5.10;;;17.50;99.90;;;;;;5089969;28;20448;-69
2023/07/04 06:33:15;;;;;;;10.70;5.00;;;17.60;99.90;;;;;;5087811;28;20184;-69
2023/07/04 06:35:41;;;;;;;12.20;5.60;;;17.80;99.90;;;;;;5091174;28;20479;-69
2023/07/04 06:38:08;;;;;;;9.17;5.33;;;17.90;99.90;;;;;;5085800;28;20180;-68
2023/07/04 06:40:34;;;;;;;11.37;5.80;;;17.90;99.90;;;;;;5090419;28;20974;-69
2023/07/04 06:42:59;;;;;;;10.50;4.93;;;18.10;99.90;;;;;;5089626;28;20418;-69
2023/07/04 06:45:25;;;;;;;8.80;5.17;;;18.20;99.90;;;;;;5076224;28;20185;-69
2023/07/04 06:47:51;;;;;;;13.47;4.93;;;18.30;99.90;;;;;;5071119;28;20549;-69
2023/07/04 06:50:16;;;;;;;7.10;4.50;;;18.30;99.90;;;;;;5070048;28;20557;-69
2023/07/04 06:52:42;;;;;;;9.70;4.30;;;18.20;99.90;;;;;;5070226;28;20318;-69
2023/07/04 06:55:08;;;;;;;12.00;4.60;;;18.20;99.90;;;;;;5070771;28;20615;-69
2023/07/04 06:57:34;;;;;;;6.80;4.10;;;18.30;99.90;;;;;;5070748;28;20180;-69
2023/07/04 06:59:59;;;;;;;9.50;4.40;;;18.50;99.90;;;;;;5073452;28;20475;-69
2023/07/04 07:02:25;;;;;;;12.80;4.73;;;18.60;99.90;;;;;;5077247;28;20665;-69
2023/07/04 07:04:51;;;;;;;10.87;5.57;;;18.60;99.90;;;;;;5090387;28;20195;-68
2023/07/04 07:07:18;;;;;;;10.43;4.97;;;18.60;99.90;;;;;;5087609;28;20754;-69
2023/07/04 07:09:43;;;;;;;11.70;4.70;;;18.50;99.90;;;;;;5070702;28;20447;-68
2023/07/04 07:12:11;;;;;;;10.77;4.23;;;18.60;99.90;;;;;;5069843;28;20189;-69
2023/07/04 07:14:37;;;;;;;7.73;3.80;;;18.80;99.90;;;;;;5070369;28;20212;-69
2023/07/04 07:17:07;;;;;;;8.30;4.70;;;18.80;99.90;;;;;;5070412;28;20415;-69
2023/07/04 07:19:33;;;;;;;11.13;4.50;;;18.90;99.90;;;;;;5070441;28;20415;-69
2023/07/04 07:22:00;;;;;;;10.50;4.23;;;18.80;99.90;;;;;;5088174;28;20764;-69
2023/07/04 07:24:28;;;;;;;14.60;5.13;;;18.90;99.90;;;;;;5090309;28;20406;-69
2023/07/04 07:26:55;;;;;;;10.10;4.50;;;18.70;99.90;;;;;;5090448;28;20440;-69
2023/07/04 07:29:20;;;;;;;9.00;4.50;;;18.70;99.90;;;;;;5073191;28;20419;-69
2023/07/04 07:31:47;;;;;;;9.97;4.70;;;18.80;99.90;;;;;;5070095;28;20423;-69
2023/07/04 07:34:13;;;;;;;9.63;4.93;;;18.90;99.90;;;;;;5069554;28;20633;-68
2023/07/04 07:36:41;;;;;;;9.67;4.40;;;18.90;99.90;;;;;;5070275;28;20514;-68
2023/07/04 07:39:10;;;;;;;10.77;4.73;;;19.00;99.90;;;;;;5070041;28;20534;-69
2023/07/04 07:41:39;;;;;;;8.57;4.53;;;19.10;99.90;;;;;;5069861;28;20863;-69
2023/07/04 07:44:06;;;;;;;12.37;4.57;;;19.20;99.90;;;;;;5069085;28;20411;-69
2023/07/04 07:46:32;;;;;;;11.93;4.10;;;19.30;99.90;;;;;;5069821;28;20854;-69
2023/07/04 07:48:58;;;;;;;11.47;4.60;;;19.40;99.90;;;;;;5069822;28;20412;-69
2023/07/04 07:51:25;;;;;;;9.47;4.00;;;19.40;99.90;;;;;;5069668;28;20514;-69
2023/07/04 07:53:53;;;;;;;9.00;4.90;;;19.40;99.90;;;;;;5068815;28;20510;-69
2023/07/04 07:56:21;;;;;;;12.73;4.60;;;19.50;99.90;;;;;;5069686;28;20828;-69
2023/07/04 07:58:48;;;;;;;8.03;3.47;;;19.50;99.90;;;;;;5068460;28;20434;-69
2023/07/04 08:01:26;;;;;;;7.60;4.00;;;19.50;99.90;;;;;;5069712;28;20510;-68
2023/07/04 08:03:51;;;;;;;7.90;4.30;;;19.50;99.90;;;;;;5068540;28;20990;-68
2023/07/04 08:06:24;;;;;;;5.50;3.50;;;19.60;99.90;;;;;;5069587;28;20457;-69
2023/07/04 08:08:50;;;;;;;9.47;3.83;;;19.50;99.90;;;;;;5069420;28;20649;-69
2023/07/04 08:11:16;;;;;;;5.97;3.10;;;19.50;99.90;;;;;;5069478;28;20432;-69
2023/07/04 08:13:43;;;;;;;6.33;3.70;;;19.50;99.90;;;;;;5068325;28;20510;-69
2023/07/04 08:16:09;;;;;;;10.43;3.70;;;19.40;99.90;;;;;;5068462;28;20459;-69
2023/07/04 08:18:34;;;;;;;5.80;3.90;;;19.40;99.90;;;;;;5069210;28;21097;-69
2023/07/04 08:21:02;;;;;;;7.57;3.53;;;19.50;99.90;;;;;;5069351;28;20428;-69
2023/07/04 08:23:28;;;;;;;7.20;3.80;;;19.60;99.90;;;;;;5068172;28;20169;-69
2023/07/04 08:25:54;;;;;;;7.20;3.57;;;19.60;99.90;;;;;;5070340;28;20975;-69
2023/07/04 08:28:21;;;;;;;6.63;3.60;;;19.50;99.90;;;;;;5090397;28;20450;-69
2023/07/04 08:30:48;;;;;;;7.50;4.00;;;19.40;99.90;;;;;;5089624;28;20204;-69
2023/07/04 08:33:16;;;;;;;4.73;3.30;;;19.40;99.90;;;;;;5088342;28;20411;-69
2023/07/04 08:36:00;;;;;;;9.13;3.57;;;19.40;99.90;;;;;;5089325;28;20458;-69
2023/07/04 08:38:26;;;;;;;13.80;3.73;;;19.50;99.90;;;;;;5088811;28;20505;-69
2023/07/04 08:40:52;;;;;;;11.33;3.80;;;19.60;99.90;;;;;;5089126;28;21319;-69
2023/07/04 08:43:28;;;;;;;4.77;3.07;;;19.70;99.90;;;;;;5088225;28;20447;-69
2023/07/04 08:45:54;;;;;;;5.93;2.80;;;19.90;99.90;;;;;;5087807;28;20406;-69
2023/07/04 08:48:23;;;;;;;4.87;3.00;;;19.90;99.90;;;;;;5089043;28;20463;-69
2023/07/04 08:50:52;;;;;;;7.20;2.97;;;20.00;99.90;;;;;;5089029;28;20521;-69
2023/07/04 08:53:21;;;;;;;6.83;3.00;;;20.10;99.90;;;;;;5088131;28;20777;-69
2023/07/04 08:56:20;;;;;;;5.80;3.00;;;20.00;99.90;;;;;;5089004;28;20458;-69
2023/07/04 08:59:00;;;;;;;6.13;2.80;;;20.10;99.90;;;;;;5089240;28;20409;-69
2023/07/04 09:01:37;;;;;;;4.80;2.50;;;20.00;99.90;;;;;;5087680;28;20513;-69
2023/07/04 09:04:13;;;;;;;3.47;2.20;;;19.90;98.80;;;;;;5087752;28;20468;-69
2023/07/04 09:06:54;;;;;;;7.20;2.63;;;19.80;98.10;;;;;;5088965;28;20414;-69
2023/07/04 09:09:22;;;;;;;6.47;2.63;;;19.90;98.20;;;;;;5088753;28;20471;-69
2023/07/04 09:11:49;;;;;;;5.57;2.90;;;19.90;98.60;;;;;;5088635;28;20446;-69
2023/07/04 09:14:21;;;;;;;5.20;3.10;;;20.00;99.20;;;;;;5087570;28;20422;-69
2023/07/04 09:16:48;;;;;;;9.13;3.63;;;20.20;98.10;;;;;;5088642;28;20844;-69
2023/07/04 09:19:21;;;;;;;5.87;2.50;;;20.30;98.40;;;;;;5088968;28;20475;-69
2023/07/04 09:21:47;;;;;;;3.97;2.70;;;20.40;98.00;;;;;;5088710;28;20504;-69
2023/07/04 09:24:13;;;;;;;9.20;3.23;;;20.50;98.20;;;;;;5087825;28;20407;-69
2023/07/04 09:26:46;;;;;;;4.00;2.40;;;20.50;97.50;;;;;;5090273;28;20490;-69
2023/07/04 09:29:17;;;;;;;6.27;2.90;;;20.70;97.60;;;;;;5088726;28;20175;-69
2023/07/04 09:31:46;;;;;;;9.10;3.23;;;20.80;97.60;;;;;;5088679;28;20458;-69
2023/07/04 09:34:21;;;;;;;6.77;3.10;;;20.80;97.20;;;;;;5087609;28;20409;-69
2023/07/04 09:36:50;;;;;;;7.10;2.83;;;20.80;98.00;;;;;;5088624;28;20440;-69
2023/07/04 09:39:16;;;;;;;5.10;2.67;;;20.80;97.30;;;;;;5088480;28;20384;-69
2023/07/04 09:41:54;;;;;;;5.37;2.70;;;20.70;98.00;;;;;;5088626;28;20781;-69
2023/07/04 09:44:26;;;;;;;6.67;2.40;;;20.70;96.90;;;;;;5087764;28;20271;-69
2023/07/04 09:46:54;;;;;;;5.27;2.60;;;20.80;96.90;;;;;;5088518;28;20481;-69
2023/07/04 09:49:21;;;;;;;5.07;2.53;;;20.90;96.40;;;;;;5089264;28;20406;-69
2023/07/04 09:52:00;;;;;;;4.70;2.40;;;21.10;96.60;;;;;;5092462;28;20414;-69
2023/07/04 09:54:26;;;;;;;9.10;2.83;;;21.10;96.10;;;;;;5091945;28;20399;-69
2023/07/04 09:56:51;;;;;;;6.47;3.03;;;21.20;96.60;;;;;;5092339;28;20436;-69
2023/07/04 09:59:26;;;;;;;4.70;2.93;;;21.20;96.10;;;;;;5092241;28;20455;-69
2023/07/04 10:01:57;;;;;;;4.03;2.37;;;21.30;95.90;;;;;;5092110;28;20612;-69
2023/07/04 10:04:35;;;;;;;3.63;2.40;;;21.40;95.80;;;;;;5091722;28;20794;-69
2023/07/04 10:07:04;;;;;;;6.83;2.50;;;21.40;94.80;;;;;;5092186;28;20406;-69
2023/07/04 10:09:33;;;;;;;7.33;2.30;;;21.40;95.00;;;;;;5083313;28;20494;-69
2023/07/04 10:12:13;;;;;;;8.07;2.80;;;21.40;94.00;;;;;;5079807;28;20427;-69
2023/07/04 10:14:52;;;;;;;5.53;2.80;;;21.30;94.60;;;;;;5078949;28;20534;-69
2023/07/04 10:17:30;;;;;;;7.00;3.07;;;21.20;95.20;;;;;;5079092;28;20494;-69
2023/07/04 10:20:00;;;;;;;3.90;2.83;;;21.20;94.60;;;;;;5071957;28;20514;-69
2023/07/04 10:22:30;;;;;;;5.40;2.97;;;21.20;95.50;;;;;;5071006;28;20913;-69
2023/07/04 10:24:58;;;;;;;6.60;3.07;;;21.40;96.00;;;;;;5071258;28;20446;-69
2023/07/04 10:27:35;;;;;;;4.33;2.90;;;21.40;95.40;;;;;;5086460;28;20415;-69
2023/07/04 10:30:05;;;;;;;7.63;2.70;;;21.60;95.50;;;;;;5091444;28;20438;-69
2023/07/04 10:33:00;;;;;;;5.67;2.50;;;21.70;95.00;;;;;;5084769;28;20426;-69
2023/07/04 10:35:30;;;;;;;6.70;2.80;;;21.90;94.80;;;;;;5079990;28;20462;-69
2023/07/04 10:38:01;;;;;;;5.57;2.83;;;22.00;94.50;;;;;;5075356;28;20418;-69
2023/07/04 10:40:27;;;;;;;6.27;2.97;;;21.90;94.80;;;;;;5080587;28;20465;-69
2023/07/04 10:43:02;;;;;;;7.57;2.90;;;21.80;94.70;;;;;;5081344;28;20821;-69
2023/07/04 10:45:29;;;;;;;8.20;3.40;;;21.70;94.40;;;;;;5082529;28;20426;-69
2023/07/04 10:48:00;;;;;;;11.23;3.77;;;21.60;94.50;;;;;;5085533;28;20445;-69
2023/07/04 10:50:29;;;;;;;6.77;3.00;;;21.60;94.80;;;;;;5080924;28;20443;-69
2023/07/04 10:52:55;;;;;;;6.43;2.80;;;21.70;95.30;;;;;;5079175;28;20423;-69
2023/07/04 10:55:35;;;;;;;4.50;2.60;;;21.80;94.70;;;;;;5079533;28;20455;-69
2023/07/04 10:58:14;;;;;;;11.77;2.97;;;21.80;94.50;;;;;;5080762;28;20644;-69
2023/07/04 11:00:47;;;;;;;5.03;2.33;;;22.00;94.40;;;;;;5087962;28;20460;-69
2023/07/04 11:03:32;;;;;;;3.00;2.27;;;22.10;93.60;;;;;;5080814;28;20473;-69
2023/07/04 11:06:00;;;;;;;2.97;2.07;;;22.10;93.60;;;;;;5084112;28;20418;-69
2023/07/04 11:08:31;;;;;;;3.70;2.80;;;22.10;92.60;;;;;;5079157;28;20416;-69
2023/07/04 11:11:05;;;;;;;4.30;2.30;;;22.10;93.60;;;;;;5073755;28;21224;-69
2023/07/04 11:13:31;;;;;;;4.67;1.93;;;22.10;93.30;;;;;;5085542;28;20426;-69
2023/07/04 11:16:03;;;;;;;6.33;2.63;;;22.20;93.20;;;;;;5081424;28;20455;-69
2023/07/04 11:18:38;;;;;;;6.57;2.53;;;22.20;92.50;;;;;;5088332;28;20434;-69
2023/07/04 11:21:15;;;;;;;4.63;2.20;;;22.30;93.40;;;;;;5083587;28;20962;-69
2023/07/04 11:23:50;;;;;;;5.07;2.37;;;22.30;92.30;;;;;;5085549;28;20491;-69
2023/07/04 11:26:40;;;;;;;3.17;2.40;;;22.40;92.50;;;;;;5085445;28;20513;-69
2023/07/04 11:29:15;;;;;;;7.40;3.03;;;22.50;92.90;;;;;;5079539;28;20412;-69
2023/07/04 11:32:02;;;;;;;4.03;2.33;;;22.60;92.20;;;;;;5086046;28;20521;-69
2023/07/04 11:34:48;;;;;;;4.50;2.50;;;22.40;91.90;;;;;;5086005;28;20422;-69
2023/07/04 11:37:28;;;;;;;5.43;2.57;;;22.50;92.50;;;;;;5086242;28;20775;-69
2023/07/04 11:39:57;;;;;;;3.90;2.27;;;22.50;91.90;;;;;;5084266;28;20439;-69
2023/07/04 11:42:37;;;;;;;12.23;2.53;;;22.50;91.70;;;;;;5085032;28;20953;-69
2023/07/04 11:45:06;;;;;;;9.70;3.07;;;22.70;91.50;;;;;;5081516;28;20410;-69
2023/07/04 11:47:48;;;;;;;5.03;3.17;;;22.60;90.50;;;;;;5085088;28;20413;-69
2023/07/04 11:50:37;;;;;;;9.93;4.13;;;22.50;90.00;;;;;;5081062;28;20441;-69
2023/07/04 11:53:14;;;;;;;7.50;3.60;;;22.50;91.50;;;;;;5083129;28;20422;-69
2023/07/04 11:55:40;;;;;;;4.00;2.23;;;22.60;91.70;;;;;;5085923;28;20458;-70
2023/07/04 11:58:09;;;;;;;5.07;2.63;;;22.70;91.70;;;;;;5082029;28;20938;-69
2023/07/04 12:00:40;;;;;;;3.10;2.07;;;22.70;89.60;;;;;;5084729;28;20435;-69
2023/07/04 12:03:18;;;;;;;4.63;2.43;;;22.60;89.00;;;;;;5079715;28;20406;-69
2023/07/04 12:05:59;;;;;;;4.20;2.43;;;22.50;88.40;;;;;;5082986;28;20526;-69
2023/07/04 12:08:53;;;;;;;5.60;2.60;;;22.50;90.00;;;;;;5084591;28;20523;-69
2023/07/04 12:11:23;;;;;;;5.40;2.80;;;22.40;91.10;;;;;;5084069;28;20545;-69
2023/07/04 12:13:50;;;;;;;4.20;2.97;;;22.40;91.80;;;;;;5080819;28;20410;-69
2023/07/04 12:16:21;;;;;;;3.73;2.90;;;22.40;92.00;;;;;;5081936;28;20454;-69
2023/07/04 12:18:47;;;;;;;4.33;3.13;;;22.60;92.30;;;;;;5083063;28;20427;-69
2023/07/04 12:21:17;;;;;;;5.40;3.60;;;22.60;91.90;;;;;;5085456;28;20495;-69
2023/07/04 12:23:44;;;;;;;6.63;3.50;;;22.70;92.50;;;;;;5079325;28;20854;-69
2023/07/04 12:26:17;;;;;;;10.73;3.50;;;22.70;91.30;;;;;;5086056;28;20426;-69
2023/07/04 12:28:46;;;;;;;6.20;3.17;;;22.50;92.50;;;;;;5076606;28;20422;-69
2023/07/04 12:31:14;;;;;;;6.30;4.00;;;22.50;92.10;;;;;;5083497;28;20927;-69
2023/07/04 12:33:44;;;;;;;6.70;3.20;;;22.40;91.20;;;;;;5083694;28;20420;-69
2023/07/04 12:36:15;;;;;;;5.13;3.20;;;22.40;91.10;;;;;;5082157;28;20483;-69
2023/07/04 12:38:50;;;;;;;4.27;3.60;;;22.50;91.00;;;;;;5087181;28;20896;-69
2023/07/04 12:41:28;;;;;;;11.00;4.20;;;22.60;91.00;;;;;;5078600;28;20439;-69
2023/07/04 12:44:02;;;;;;;4.93;3.70;;;22.60;88.90;;;;;;5079593;28;20775;-69
2023/07/04 12:46:31;;;;;;;5.33;3.40;;;22.60;90.10;;;;;;5085770;28;20748;-69
2023/07/04 12:48:58;;;;;;;5.40;3.80;;;22.50;90.80;;;;;;5084284;28;20775;-69
2023/07/04 12:51:29;;;;;;;7.20;3.87;;;22.40;91.20;;;;;;5084169;28;20465;-69
2023/07/04 12:53:57;;;;;;;4.50;3.87;;;22.50;91.40;;;;;;5081183;28;20424;-69
2023/07/04 12:56:23;;;;;;;7.33;3.83;;;22.50;92.50;;;;;;5082734;28;20458;-69